createdAt,value
2023-04-29T00:00:38.984Z,12.09
2023-04-29T00:01:38.990Z,12.13
2023-04-29T00:02:39.113Z,11.99
2023-04-29T00:03:39.282Z,12.12
2023-04-29T00:04:39.339Z,12.12
2023-04-29T00:05:39.051Z,12.12
2023-04-29T00:06:38.968Z,12.12
2023-04-29T00:07:38.974Z,12.15
2023-04-29T00:08:38.980Z,12.13
2023-04-29T00:09:39.039Z,12.10
2023-04-29T00:10:38.958Z,12.17
2023-04-29T00:11:38.957Z,12.10
2023-04-29T00:12:38.957Z,12.17
2023-04-29T00:13:38.952Z,12.03
2023-04-29T00:14:38.948Z,12.06
2023-04-29T00:15:38.942Z,12.06
2023-04-29T00:16:38.964Z,12.13
2023-04-29T00:17:38.978Z,12.00
2023-04-29T00:18:38.952Z,12.00
2023-04-29T00:19:38.931Z,11.91
2023-04-29T00:20:38.928Z,11.99
2023-04-29T00:21:38.931Z,11.94
2023-04-29T00:22:38.922Z,11.99
2023-04-29T00:23:38.919Z,11.95
2023-04-29T00:24:38.919Z,11.84
2023-04-29T00:25:38.958Z,12.00
2023-04-29T00:26:38.909Z,11.84
2023-04-29T00:27:38.922Z,11.87
2023-04-29T00:28:38.907Z,11.88
2023-04-29T00:29:38.900Z,11.77
2023-04-29T00:30:38.919Z,11.84
2023-04-29T00:31:39.014Z,11.77
2023-04-29T00:32:38.907Z,11.75
2023-04-29T00:33:38.891Z,11.77
2023-04-29T00:34:38.886Z,11.77
2023-04-29T00:35:38.910Z,11.66
2023-04-29T00:36:38.890Z,11.68
2023-04-29T00:37:38.882Z,11.69
2023-04-29T00:38:38.872Z,11.66
2023-04-29T00:39:38.874Z,11.69
2023-04-29T00:40:38.868Z,11.65
2023-04-29T00:41:38.884Z,11.54
2023-04-29T00:42:38.859Z,11.57
2023-04-29T00:43:38.881Z,11.48
2023-04-29T00:44:38.856Z,11.55
2023-04-29T00:45:39.066Z,11.44
2023-04-29T00:46:38.978Z,11.50
2023-04-29T00:47:38.912Z,11.47
2023-04-29T00:48:38.854Z,11.48
2023-04-29T00:49:38.843Z,11.48
2023-04-29T00:50:38.846Z,11.41
2023-04-29T00:51:38.832Z,11.47
2023-04-29T00:52:38.837Z,11.37
2023-04-29T00:53:38.833Z,11.32
2023-04-29T00:54:38.835Z,11.33
2023-04-29T00:55:38.822Z,11.35
2023-04-29T00:56:38.819Z,11.30
2023-04-29T00:57:38.871Z,11.33
2023-04-29T00:58:38.822Z,11.29
2023-04-29T00:59:38.816Z,11.27
2023-04-29T01:00:38.824Z,11.25
2023-04-29T01:01:38.868Z,11.18
2023-04-29T01:02:38.899Z,11.18
2023-04-29T01:03:39.045Z,11.18
2023-04-29T01:04:38.877Z,11.22
2023-04-29T01:05:38.800Z,11.17
2023-04-29T01:06:38.790Z,11.17
2023-04-29T01:07:38.787Z,11.18
2023-04-29T01:08:38.790Z,11.22
2023-04-29T01:09:38.788Z,11.14
2023-04-29T01:10:38.784Z,11.12
2023-04-29T01:11:38.794Z,11.14
2023-04-29T01:12:38.774Z,11.14
2023-04-29T01:13:38.784Z,11.11
2023-04-29T01:14:38.761Z,11.08
2023-04-29T01:15:38.796Z,11.07
2023-04-29T01:16:38.865Z,11.10
2023-04-29T01:17:38.802Z,11.14
2023-04-29T01:18:38.751Z,11.14
2023-04-29T01:19:38.760Z,11.12
2023-04-29T01:20:38.748Z,10.96
2023-04-29T01:21:38.742Z,11.02
2023-04-29T01:22:38.734Z,10.99
2023-04-29T01:23:38.733Z,11.08
2023-04-29T01:24:38.727Z,11.07
2023-04-29T01:25:38.730Z,11.14
2023-04-29T01:26:38.736Z,11.14
2023-04-29T01:27:38.721Z,11.12
2023-04-29T01:28:38.716Z,11.10
2023-04-29T01:29:38.794Z,11.14
2023-04-29T01:30:38.712Z,11.02
2023-04-29T01:31:38.763Z,11.08
2023-04-29T01:32:38.770Z,11.05
2023-04-29T01:33:38.702Z,11.15
2023-04-29T01:34:38.704Z,11.10
2023-04-29T01:35:38.700Z,11.17
2023-04-29T01:36:38.695Z,11.10
2023-04-29T01:37:38.704Z,11.14
2023-04-29T01:38:38.682Z,11.15
2023-04-29T01:39:38.681Z,11.10
2023-04-29T01:40:38.686Z,11.08
2023-04-29T01:41:38.675Z,11.08
2023-04-29T01:42:38.673Z,11.07
2023-04-29T01:43:38.671Z,11.04
2023-04-29T01:44:38.681Z,11.02
2023-04-29T01:45:38.683Z,11.00
2023-04-29T01:46:38.727Z,11.00
2023-04-29T01:47:38.685Z,10.89
2023-04-29T01:48:38.669Z,10.90
2023-04-29T01:49:38.654Z,10.82
2023-04-29T01:50:38.644Z,10.90
2023-04-29T01:51:38.648Z,10.84
2023-04-29T01:52:38.645Z,10.90
2023-04-29T01:53:38.636Z,10.84
2023-04-29T01:54:38.629Z,10.81
2023-04-29T01:55:38.641Z,10.81
2023-04-29T01:56:38.627Z,10.86
2023-04-29T01:57:38.623Z,10.79
2023-04-29T01:58:38.619Z,10.87
2023-04-29T01:59:38.632Z,10.82
2023-04-29T02:00:38.684Z,10.82
2023-04-29T02:01:38.644Z,10.93
2023-04-29T02:02:38.713Z,10.81
2023-04-29T02:03:38.738Z,10.87
2023-04-29T02:04:38.681Z,10.81
2023-04-29T02:05:38.605Z,10.84
2023-04-29T02:06:38.625Z,10.84
2023-04-29T02:07:38.588Z,10.96
2023-04-29T02:08:38.587Z,10.82
2023-04-29T02:09:38.599Z,10.86
2023-04-29T02:10:38.591Z,10.89
2023-04-29T02:11:38.578Z,10.82
2023-04-29T02:12:38.574Z,10.82
2023-04-29T02:13:38.575Z,10.89
2023-04-29T02:14:38.604Z,10.81
2023-04-29T02:15:38.580Z,10.78
2023-04-29T02:16:38.628Z,10.86
2023-04-29T02:17:38.639Z,10.74
2023-04-29T02:18:38.561Z,10.68
2023-04-29T02:19:38.558Z,10.71
2023-04-29T02:20:38.576Z,10.74
2023-04-29T02:21:38.549Z,10.71
2023-04-29T02:22:38.539Z,10.71
2023-04-29T02:23:38.550Z,10.71
2023-04-29T02:24:38.538Z,10.71
2023-04-29T02:25:38.538Z,10.67
2023-04-29T02:26:38.570Z,10.67
2023-04-29T02:27:38.535Z,10.72
2023-04-29T02:28:38.526Z,10.74
2023-04-29T02:29:38.520Z,10.75
2023-04-29T02:30:38.524Z,10.74
2023-04-29T02:31:38.602Z,10.71
2023-04-29T02:32:38.545Z,10.63
2023-04-29T02:33:38.527Z,10.72
2023-04-29T02:34:38.558Z,10.63
2023-04-29T02:35:38.504Z,10.44
2023-04-29T02:36:38.515Z,10.44
2023-04-29T02:37:38.534Z,10.48
2023-04-29T02:38:38.523Z,10.37
2023-04-29T02:39:38.541Z,10.41
2023-04-29T02:40:38.513Z,10.42
2023-04-29T02:41:38.480Z,10.40
2023-04-29T02:42:38.528Z,10.42
2023-04-29T02:43:38.475Z,10.37
2023-04-29T02:44:38.477Z,10.41
2023-04-29T02:45:38.880Z,10.37
2023-04-29T02:46:38.465Z,10.31
2023-04-29T02:47:38.474Z,10.33
2023-04-29T02:48:38.458Z,10.37
2023-04-29T02:49:38.476Z,10.31
2023-04-29T02:50:38.454Z,10.33
2023-04-29T02:51:38.447Z,10.31
2023-04-29T02:52:38.447Z,10.30
2023-04-29T02:53:38.444Z,10.30
2023-04-29T02:54:38.445Z,10.25
2023-04-29T02:55:38.438Z,10.28
2023-04-29T02:56:38.436Z,10.31
2023-04-29T02:57:38.429Z,10.30
2023-04-29T02:58:38.427Z,10.28
2023-04-29T02:59:38.440Z,10.33
2023-04-29T03:00:38.448Z,10.17
2023-04-29T03:01:38.515Z,10.34
2023-04-29T03:02:38.562Z,10.28
2023-04-29T03:03:38.583Z,10.23
2023-04-29T03:04:38.408Z,10.25
2023-04-29T03:05:38.552Z,10.20
2023-04-29T03:06:38.395Z,10.31
2023-04-29T03:07:38.444Z,10.28
2023-04-29T03:08:38.386Z,10.20
2023-04-29T03:09:38.388Z,10.19
2023-04-29T03:10:41.111Z,10.20
2023-04-29T03:11:38.378Z,10.23
2023-04-29T03:12:38.378Z,10.22
2023-04-29T03:13:38.370Z,10.23
2023-04-29T03:14:38.367Z,10.23
2023-04-29T03:15:38.372Z,10.19
2023-04-29T03:16:38.413Z,10.23
2023-04-29T03:17:38.365Z,10.22
2023-04-29T03:18:38.349Z,10.15
2023-04-29T03:19:38.352Z,10.16
2023-04-29T03:20:38.342Z,10.13
2023-04-29T03:21:38.358Z,10.20
2023-04-29T03:22:38.347Z,10.17
2023-04-29T03:23:38.329Z,10.19
2023-04-29T03:24:38.328Z,10.16
2023-04-29T03:25:38.372Z,10.05
2023-04-29T03:26:38.316Z,10.16
2023-04-29T03:27:38.313Z,10.20
2023-04-29T03:28:38.309Z,10.10
2023-04-29T03:29:38.304Z,10.16
2023-04-29T03:30:38.300Z,10.05
2023-04-29T03:31:38.319Z,10.05
2023-04-29T03:32:38.344Z,10.13
2023-04-29T03:33:38.288Z,10.12
2023-04-29T03:34:38.297Z,10.16
2023-04-29T03:35:38.292Z,10.20
2023-04-29T03:36:38.286Z,10.15
2023-04-29T03:37:38.294Z,10.07
2023-04-29T03:38:38.269Z,10.07
2023-04-29T03:39:38.283Z,10.07
2023-04-29T03:40:38.270Z,10.13
2023-04-29T03:41:38.266Z,10.12
2023-04-29T03:42:38.261Z,10.10
2023-04-29T03:43:38.264Z,10.07
2023-04-29T03:44:38.252Z,10.07
2023-04-29T03:45:38.602Z,10.10
2023-04-29T03:46:38.348Z,10.10
2023-04-29T03:47:38.318Z,10.04
2023-04-29T03:48:38.239Z,9.95
2023-04-29T03:49:38.244Z,9.92
2023-04-29T03:50:38.241Z,9.95
2023-04-29T03:51:38.221Z,9.95
2023-04-29T03:52:38.228Z,9.98
2023-04-29T03:53:38.239Z,9.95
2023-04-29T03:54:38.215Z,9.99
2023-04-29T03:55:38.209Z,9.89
2023-04-29T03:56:38.208Z,9.91
2023-04-29T03:57:39.794Z,9.95
2023-04-29T03:58:38.199Z,9.94
2023-04-29T03:59:38.207Z,9.87
2023-04-29T04:00:38.189Z,9.92
2023-04-29T04:01:38.242Z,9.95
2023-04-29T04:02:38.299Z,9.92
2023-04-29T04:03:38.260Z,9.89
2023-04-29T04:04:38.275Z,9.95
2023-04-29T04:05:38.205Z,9.92
2023-04-29T04:06:38.170Z,9.95
2023-04-29T04:07:38.163Z,9.97
2023-04-29T04:08:38.163Z,9.92
2023-04-29T04:09:38.194Z,9.86
2023-04-29T04:10:38.152Z,9.89
2023-04-29T04:11:38.149Z,9.99
2023-04-29T04:12:38.162Z,9.92
2023-04-29T04:13:38.136Z,9.95
2023-04-29T04:14:38.149Z,9.95
2023-04-29T04:15:38.130Z,9.98
2023-04-29T04:16:38.236Z,9.95
2023-04-29T04:17:38.148Z,9.97
2023-04-29T04:18:38.118Z,9.92
2023-04-29T04:19:38.110Z,9.87
2023-04-29T04:20:38.112Z,9.89
2023-04-29T04:21:38.104Z,9.91
2023-04-29T04:22:38.102Z,9.92
2023-04-29T04:23:38.115Z,9.84
2023-04-29T04:24:38.095Z,9.83
2023-04-29T04:25:38.115Z,9.82
2023-04-29T04:26:38.089Z,9.86
2023-04-29T04:27:38.094Z,9.84
2023-04-29T04:28:38.085Z,9.82
2023-04-29T04:29:38.080Z,9.94
2023-04-29T04:30:38.078Z,9.84
2023-04-29T04:31:38.114Z,9.92
2023-04-29T04:32:38.109Z,9.94
2023-04-29T04:33:38.063Z,9.92
2023-04-29T04:34:38.061Z,9.82
2023-04-29T04:35:38.081Z,9.87
2023-04-29T04:36:38.080Z,9.86
2023-04-29T04:37:38.051Z,9.83
2023-04-29T04:38:38.066Z,9.89
2023-04-29T04:39:38.043Z,9.83
2023-04-29T04:40:38.054Z,9.79
2023-04-29T04:41:38.119Z,9.69
2023-04-29T04:42:38.054Z,9.80
2023-04-29T04:43:38.032Z,9.72
2023-04-29T04:44:38.034Z,9.77
2023-04-29T04:45:38.039Z,9.77
2023-04-29T04:46:38.027Z,9.73
2023-04-29T04:47:38.053Z,9.79
2023-04-29T04:48:38.013Z,9.80
2023-04-29T04:49:38.004Z,9.80
2023-04-29T04:50:38.023Z,9.84
2023-04-29T04:51:37.997Z,9.89
2023-04-29T04:52:37.998Z,9.83
2023-04-29T04:53:37.990Z,9.83
2023-04-29T04:54:37.995Z,9.86
2023-04-29T04:55:37.994Z,9.84
2023-04-29T04:56:37.983Z,9.82
2023-04-29T04:57:37.998Z,9.77
2023-04-29T04:58:37.970Z,9.76
2023-04-29T04:59:37.977Z,9.83
2023-04-29T05:00:37.969Z,9.80
2023-04-29T05:01:38.010Z,9.87
2023-04-29T05:02:38.240Z,9.80
2023-04-29T05:03:38.183Z,9.82
2023-04-29T05:04:37.952Z,9.79
2023-04-29T05:05:37.949Z,9.79
2023-04-29T05:06:37.954Z,9.80
2023-04-29T05:07:37.941Z,9.87
2023-04-29T05:08:37.939Z,9.87
2023-04-29T05:09:37.932Z,9.77
2023-04-29T05:10:37.941Z,9.82
2023-04-29T05:11:37.929Z,9.74
2023-04-29T05:12:37.939Z,9.72
2023-04-29T05:13:37.957Z,9.76
2023-04-29T05:14:37.914Z,9.74
2023-04-29T05:15:37.912Z,9.72
2023-04-29T05:16:37.910Z,9.76
2023-04-29T05:17:37.963Z,9.76
2023-04-29T05:18:37.899Z,9.82
2023-04-29T05:19:37.896Z,9.79
2023-04-29T05:20:37.891Z,9.73
2023-04-29T05:21:37.882Z,9.83
2023-04-29T05:22:37.892Z,9.83
2023-04-29T05:23:37.880Z,9.80
2023-04-29T05:24:37.877Z,9.83
2023-04-29T05:25:37.866Z,9.84
2023-04-29T05:26:37.866Z,9.69
2023-04-29T05:27:37.868Z,9.79
2023-04-29T05:28:37.862Z,9.74
2023-04-29T05:29:37.872Z,9.82
2023-04-29T05:30:38.037Z,9.84
2023-04-29T05:31:37.849Z,9.82
2023-04-29T05:32:37.912Z,9.83
2023-04-29T05:33:37.837Z,9.84
2023-04-29T05:34:37.839Z,9.79
2023-04-29T05:35:37.829Z,9.91
2023-04-29T05:36:37.830Z,9.83
2023-04-29T05:37:37.823Z,9.82
2023-04-29T05:38:37.838Z,9.79
2023-04-29T05:39:37.816Z,9.69
2023-04-29T05:40:37.819Z,9.76
2023-04-29T05:41:37.808Z,9.82
2023-04-29T05:42:37.806Z,9.83
2023-04-29T05:43:37.809Z,9.86
2023-04-29T05:44:37.814Z,9.87
2023-04-29T05:45:37.810Z,9.84
2023-04-29T05:46:38.073Z,9.79
2023-04-29T05:47:37.888Z,9.83
2023-04-29T05:48:37.782Z,9.84
2023-04-29T05:49:37.799Z,9.84
2023-04-29T05:50:37.782Z,9.84
2023-04-29T05:51:37.768Z,9.80
2023-04-29T05:52:37.769Z,9.80
2023-04-29T05:53:37.767Z,9.84
2023-04-29T05:54:37.758Z,9.80
2023-04-29T05:55:37.756Z,9.79
2023-04-29T05:56:37.761Z,9.77
2023-04-29T05:57:37.747Z,9.79
2023-04-29T05:58:37.748Z,9.77
2023-04-29T05:59:37.736Z,9.77
2023-04-29T06:00:37.742Z,9.80
2023-04-29T06:01:37.816Z,9.77
2023-04-29T06:02:44.161Z,9.84
2023-04-29T06:03:37.977Z,9.87
2023-04-29T06:04:38.049Z,9.82
2023-04-29T06:05:38.087Z,9.83
2023-04-29T06:06:37.725Z,9.80
2023-04-29T06:07:37.713Z,9.80
2023-04-29T06:08:37.711Z,9.87
2023-04-29T06:09:37.699Z,9.92
2023-04-29T06:10:37.698Z,9.87
2023-04-29T06:11:37.694Z,9.87
2023-04-29T06:12:37.688Z,9.86
2023-04-29T06:13:37.695Z,9.92
2023-04-29T06:14:37.683Z,9.92
2023-04-29T06:15:37.693Z,9.94
2023-04-29T06:16:37.846Z,10.01
2023-04-29T06:17:37.787Z,9.94
2023-04-29T06:18:37.671Z,9.98
2023-04-29T06:19:37.663Z,9.94
2023-04-29T06:20:37.762Z,9.94
2023-04-29T06:21:37.674Z,9.94
2023-04-29T06:22:37.664Z,9.95
2023-04-29T06:23:37.656Z,9.95
2023-04-29T06:24:37.651Z,9.95
2023-04-29T06:25:37.639Z,9.91
2023-04-29T06:26:37.643Z,9.99
2023-04-29T06:27:37.639Z,9.97
2023-04-29T06:28:37.639Z,9.92
2023-04-29T06:29:37.672Z,10.02
2023-04-29T06:30:37.629Z,10.07
2023-04-29T06:31:37.674Z,10.15
2023-04-29T06:32:37.720Z,10.09
2023-04-29T06:33:37.643Z,10.10
2023-04-29T06:34:37.606Z,10.07
2023-04-29T06:35:37.617Z,10.09
2023-04-29T06:36:37.602Z,10.16
2023-04-29T06:37:38.067Z,10.05
2023-04-29T06:38:37.593Z,10.07
2023-04-29T06:39:37.599Z,10.13
2023-04-29T06:40:37.582Z,10.15
2023-04-29T06:41:37.574Z,10.05
2023-04-29T06:42:37.581Z,10.01
2023-04-29T06:43:37.577Z,10.04
2023-04-29T06:44:37.576Z,9.97
2023-04-29T06:45:37.567Z,9.95
2023-04-29T06:46:37.839Z,9.95
2023-04-29T06:47:37.642Z,10.04
2023-04-29T06:48:37.558Z,9.94
2023-04-29T06:49:37.563Z,9.91
2023-04-29T06:50:37.544Z,9.92
2023-04-29T06:51:37.538Z,9.87
2023-04-29T06:52:37.541Z,9.89
2023-04-29T06:53:37.531Z,9.98
2023-04-29T06:54:37.551Z,9.91
2023-04-29T06:55:37.529Z,10.02
2023-04-29T06:56:37.535Z,10.07
2023-04-29T06:57:37.528Z,10.04
2023-04-29T06:58:37.515Z,10.04
2023-04-29T06:59:37.512Z,9.97
2023-04-29T07:00:37.505Z,9.95
2023-04-29T07:01:37.612Z,9.97
2023-04-29T07:02:37.555Z,9.99
2023-04-29T07:03:37.740Z,9.97
2023-04-29T07:04:37.589Z,9.95
2023-04-29T07:05:37.527Z,10.01
2023-04-29T07:06:37.484Z,10.01
2023-04-29T07:07:37.477Z,10.04
2023-04-29T07:08:37.511Z,9.94
2023-04-29T07:09:37.470Z,9.91
2023-04-29T07:10:37.468Z,9.95
2023-04-29T07:11:37.481Z,9.95
2023-04-29T07:12:37.480Z,9.98
2023-04-29T07:13:37.452Z,9.95
2023-04-29T07:14:37.452Z,9.91
2023-04-29T07:15:37.442Z,10.04
2023-04-29T07:16:37.459Z,9.95
2023-04-29T07:17:37.478Z,10.07
2023-04-29T07:18:37.437Z,10.07
2023-04-29T07:19:37.435Z,10.12
2023-04-29T07:20:37.438Z,10.20
2023-04-29T07:21:37.465Z,10.22
2023-04-29T07:22:37.430Z,10.20
2023-04-29T07:23:37.437Z,10.16
2023-04-29T07:24:37.420Z,10.12
2023-04-29T07:25:37.413Z,10.26
2023-04-29T07:26:37.412Z,10.19
2023-04-29T07:27:37.407Z,10.19
2023-04-29T07:28:37.395Z,10.16
2023-04-29T07:29:37.392Z,10.22
2023-04-29T07:30:37.448Z,10.16
2023-04-29T07:31:38.283Z,10.23
2023-04-29T07:32:37.404Z,10.17
2023-04-29T07:33:37.377Z,10.16
2023-04-29T07:34:37.391Z,10.19
2023-04-29T07:35:37.376Z,10.23
2023-04-29T07:36:37.371Z,10.23
2023-04-29T07:37:37.382Z,10.15
2023-04-29T07:38:37.358Z,10.19
2023-04-29T07:39:37.354Z,10.23
2023-04-29T07:40:37.356Z,10.26
2023-04-29T07:41:37.347Z,10.22
2023-04-29T07:42:37.362Z,10.17
2023-04-29T07:43:37.350Z,10.20
2023-04-29T07:44:37.353Z,10.26
2023-04-29T07:45:37.340Z,10.31
2023-04-29T07:46:37.576Z,10.31
2023-04-29T07:47:37.358Z,10.23
2023-04-29T07:48:37.318Z,10.25
2023-04-29T07:49:37.316Z,10.25
2023-04-29T07:50:37.308Z,10.35
2023-04-29T07:51:37.318Z,10.22
2023-04-29T07:52:37.309Z,10.35
2023-04-29T07:53:37.333Z,10.41
2023-04-29T07:54:37.304Z,10.41
2023-04-29T07:55:37.298Z,10.41
2023-04-29T07:56:37.284Z,10.37
2023-04-29T07:57:37.294Z,10.38
2023-04-29T07:58:37.293Z,10.28
2023-04-29T07:59:37.278Z,10.28
2023-04-29T08:00:37.276Z,10.26
2023-04-29T08:01:37.278Z,10.34
2023-04-29T08:02:37.410Z,10.33
2023-04-29T08:03:40.596Z,10.40
2023-04-29T08:04:37.434Z,10.46
2023-04-29T08:05:37.458Z,10.40
2023-04-29T08:06:37.252Z,10.35
2023-04-29T08:07:37.248Z,10.37
2023-04-29T08:08:37.246Z,10.44
2023-04-29T08:09:37.258Z,10.48
2023-04-29T08:10:37.238Z,10.44
2023-04-29T08:11:37.234Z,10.37
2023-04-29T08:12:37.229Z,10.51
2023-04-29T08:13:37.226Z,10.41
2023-04-29T08:14:37.235Z,10.41
2023-04-29T08:15:37.216Z,10.57
2023-04-29T08:16:37.358Z,10.54
2023-04-29T08:17:37.241Z,10.54
2023-04-29T08:18:37.203Z,10.59
2023-04-29T08:19:37.202Z,10.49
2023-04-29T08:20:37.200Z,10.57
2023-04-29T08:21:37.201Z,10.48
2023-04-29T08:22:37.192Z,10.49
2023-04-29T08:23:37.188Z,10.48
2023-04-29T08:24:37.196Z,10.38
2023-04-29T08:25:37.369Z,10.44
2023-04-29T08:26:37.180Z,10.40
2023-04-29T08:27:37.184Z,10.46
2023-04-29T08:28:37.170Z,10.53
2023-04-29T08:29:37.165Z,10.42
2023-04-29T08:30:37.162Z,10.41
2023-04-29T08:31:37.182Z,10.44
2023-04-29T08:32:37.256Z,10.44
2023-04-29T08:33:37.168Z,10.37
2023-04-29T08:34:37.148Z,10.49
2023-04-29T08:35:37.149Z,10.38
2023-04-29T08:36:37.160Z,10.35
2023-04-29T08:37:37.143Z,10.38
2023-04-29T08:38:37.138Z,10.41
2023-04-29T08:39:37.132Z,10.35
2023-04-29T08:40:37.134Z,10.37
2023-04-29T08:41:37.174Z,10.31
2023-04-29T08:42:37.130Z,10.38
2023-04-29T08:43:37.116Z,10.41
2023-04-29T08:44:37.114Z,10.41
2023-04-29T08:45:37.154Z,10.44
2023-04-29T08:46:37.451Z,10.40
2023-04-29T08:47:37.155Z,10.37
2023-04-29T08:48:37.166Z,10.30
2023-04-29T08:49:37.092Z,10.34
2023-04-29T08:50:37.090Z,10.26
2023-04-29T08:51:37.095Z,10.30
2023-04-29T08:52:37.166Z,10.28
2023-04-29T08:53:37.078Z,10.33
2023-04-29T08:54:37.071Z,10.34
2023-04-29T08:55:37.072Z,10.35
2023-04-29T08:56:37.070Z,10.22
2023-04-29T08:57:37.082Z,10.23
2023-04-29T08:58:37.058Z,10.25
2023-04-29T08:59:37.063Z,10.22
2023-04-29T09:00:37.054Z,10.22
2023-04-29T09:01:37.121Z,10.22
2023-04-29T09:02:37.101Z,10.26
2023-04-29T09:03:37.169Z,10.23
2023-04-29T09:04:37.185Z,10.31
2023-04-29T09:05:37.034Z,10.22
2023-04-29T09:06:37.025Z,10.23
2023-04-29T09:07:37.026Z,10.22
2023-04-29T09:08:37.019Z,10.23
2023-04-29T09:09:37.022Z,10.22
2023-04-29T09:10:37.013Z,10.23
2023-04-29T09:11:37.009Z,10.26
2023-04-29T09:12:37.007Z,10.20
2023-04-29T09:13:37.020Z,10.23
2023-04-29T09:14:37.002Z,10.23
2023-04-29T09:15:36.996Z,10.20
2023-04-29T09:16:37.021Z,10.15
2023-04-29T09:17:37.025Z,10.20
2023-04-29T09:18:36.980Z,10.10
2023-04-29T09:19:37.012Z,10.15
2023-04-29T09:20:37.016Z,10.10
2023-04-29T09:21:36.972Z,10.15
2023-04-29T09:22:36.967Z,10.04
2023-04-29T09:23:36.965Z,10.10
2023-04-29T09:24:36.962Z,10.15
2023-04-29T09:25:36.957Z,10.09
2023-04-29T09:26:36.952Z,10.10
2023-04-29T09:27:36.952Z,10.12
2023-04-29T09:28:36.948Z,10.05
2023-04-29T09:29:36.966Z,10.13
2023-04-29T09:30:36.944Z,10.09
2023-04-29T09:31:36.998Z,10.09
2023-04-29T09:32:39.022Z,10.19
2023-04-29T09:33:36.929Z,10.07
2023-04-29T09:34:36.920Z,10.15
2023-04-29T09:35:36.924Z,10.17
2023-04-29T09:36:36.915Z,10.15
2023-04-29T09:37:36.914Z,10.10
2023-04-29T09:38:36.913Z,10.20
2023-04-29T09:39:36.908Z,10.22
2023-04-29T09:40:50.142Z,10.23
2023-04-29T09:41:36.897Z,10.22
2023-04-29T09:42:36.895Z,10.23
2023-04-29T09:43:36.892Z,10.26
2023-04-29T09:44:36.901Z,10.15
2023-04-29T09:45:36.909Z,10.22
2023-04-29T09:46:37.031Z,10.22
2023-04-29T09:47:36.887Z,10.25
2023-04-29T09:48:36.886Z,10.20
2023-04-29T09:49:36.865Z,10.13
2023-04-29T09:50:36.872Z,10.12
2023-04-29T09:51:37.065Z,10.12
2023-04-29T09:52:36.864Z,10.33
2023-04-29T09:53:36.858Z,10.33
2023-04-29T09:54:36.847Z,10.25
2023-04-29T09:55:36.849Z,10.30
2023-04-29T09:56:36.845Z,10.25
2023-04-29T09:57:36.838Z,10.23
2023-04-29T09:58:36.856Z,10.23
2023-04-29T09:59:36.828Z,10.23
2023-04-29T10:00:36.828Z,10.28
2023-04-29T10:01:36.950Z,10.33
2023-04-29T10:02:36.923Z,10.23
2023-04-29T10:03:37.184Z,10.28
2023-04-29T10:04:38.849Z,10.17
2023-04-29T10:05:36.808Z,10.30
2023-04-29T10:06:36.806Z,10.28
2023-04-29T10:07:36.800Z,10.37
2023-04-29T10:08:36.796Z,10.33
2023-04-29T10:09:36.790Z,10.34
2023-04-29T10:10:36.784Z,10.28
2023-04-29T10:11:36.782Z,10.20
2023-04-29T10:12:36.790Z,10.26
2023-04-29T10:13:36.775Z,10.30
2023-04-29T10:14:36.770Z,10.33
2023-04-29T10:15:36.897Z,10.28
2023-04-29T10:16:36.874Z,10.35
2023-04-29T10:17:36.780Z,10.41
2023-04-29T10:18:36.802Z,10.38
2023-04-29T10:19:36.760Z,10.33
2023-04-29T10:20:36.744Z,10.33
2023-04-29T10:21:36.740Z,10.31
2023-04-29T10:22:36.743Z,10.41
2023-04-29T10:23:36.736Z,10.40
2023-04-29T10:24:36.742Z,10.42
2023-04-29T10:25:36.726Z,10.42
2023-04-29T10:26:36.722Z,10.42
2023-04-29T10:27:36.720Z,10.41
2023-04-29T10:28:36.712Z,10.38
2023-04-29T10:29:36.709Z,10.38
2023-04-29T10:30:36.709Z,10.37
2023-04-29T10:31:36.787Z,10.48
2023-04-29T10:32:49.642Z,10.38
2023-04-29T10:33:36.729Z,10.41
2023-04-29T10:34:36.697Z,10.44
2023-04-29T10:35:36.689Z,10.56
2023-04-29T10:36:36.683Z,10.46
2023-04-29T10:37:36.681Z,10.42
2023-04-29T10:38:36.690Z,10.44
2023-04-29T10:39:36.674Z,10.38
2023-04-29T10:40:36.667Z,10.40
2023-04-29T10:41:36.673Z,10.42
2023-04-29T10:42:36.664Z,10.41
2023-04-29T10:43:36.656Z,10.51
2023-04-29T10:44:36.649Z,10.53
2023-04-29T10:45:36.766Z,10.51
2023-04-29T10:46:36.665Z,10.49
2023-04-29T10:47:36.716Z,10.49
2023-04-29T10:48:36.635Z,10.51
2023-04-29T10:49:36.659Z,10.44
2023-04-29T10:50:36.631Z,10.49
2023-04-29T10:51:36.836Z,10.46
2023-04-29T10:52:36.618Z,10.53
2023-04-29T10:53:36.616Z,10.49
2023-04-29T10:54:36.607Z,10.46
2023-04-29T10:55:36.630Z,10.53
2023-04-29T10:56:36.630Z,10.56
2023-04-29T10:57:36.605Z,10.60
2023-04-29T10:58:36.615Z,10.64
2023-04-29T10:59:36.613Z,10.61
2023-04-29T11:00:36.595Z,10.63
2023-04-29T11:01:36.596Z,10.64
2023-04-29T11:02:36.655Z,10.69
2023-04-29T11:03:36.772Z,10.64
2023-04-29T11:04:36.638Z,10.64
2023-04-29T11:05:36.636Z,10.68
2023-04-29T11:06:36.602Z,10.68
2023-04-29T11:07:36.575Z,10.67
2023-04-29T11:08:36.568Z,10.68
2023-04-29T11:09:36.568Z,10.63
2023-04-29T11:10:36.579Z,10.63
2023-04-29T11:11:36.564Z,10.72
2023-04-29T11:12:36.555Z,10.84
2023-04-29T11:13:36.542Z,10.79
2023-04-29T11:14:36.748Z,10.90
2023-04-29T11:15:36.542Z,10.93
2023-04-29T11:16:36.575Z,10.79
2023-04-29T11:17:36.570Z,10.93
2023-04-29T11:18:36.525Z,10.97
2023-04-29T11:19:36.532Z,10.97
2023-04-29T11:20:36.522Z,11.04
2023-04-29T11:21:36.549Z,11.18
2023-04-29T11:22:36.511Z,11.14
2023-04-29T11:23:36.522Z,11.11
2023-04-29T11:24:36.513Z,11.07
2023-04-29T11:25:38.743Z,11.02
2023-04-29T11:26:36.517Z,11.14
2023-04-29T11:27:36.501Z,11.17
2023-04-29T11:28:36.488Z,11.30
2023-04-29T11:29:36.480Z,11.35
2023-04-29T11:30:36.478Z,11.32
2023-04-29T11:31:36.545Z,11.30
2023-04-29T11:32:36.582Z,11.27
2023-04-29T11:33:36.515Z,11.44
2023-04-29T11:34:36.478Z,11.44
2023-04-29T11:35:36.477Z,11.50
2023-04-29T11:36:36.475Z,11.47
2023-04-29T11:37:36.479Z,11.48
2023-04-29T11:38:36.453Z,11.54
2023-04-29T11:39:36.446Z,11.63
2023-04-29T11:40:36.447Z,11.48
2023-04-29T11:41:36.447Z,11.54
2023-04-29T11:42:36.437Z,11.60
2023-04-29T11:43:36.495Z,11.63
2023-04-29T11:44:36.429Z,11.63
2023-04-29T11:45:36.443Z,11.63
2023-04-29T11:46:36.480Z,11.66
2023-04-29T11:47:36.437Z,11.77
2023-04-29T11:48:36.416Z,11.81
2023-04-29T11:49:36.411Z,11.83
2023-04-29T11:50:36.411Z,11.81
2023-04-29T11:51:36.753Z,11.83
2023-04-29T11:52:36.405Z,11.83
2023-04-29T11:53:36.417Z,11.81
2023-04-29T11:54:36.395Z,11.86
2023-04-29T11:55:36.410Z,11.90
2023-04-29T11:56:36.398Z,11.95
2023-04-29T11:57:36.384Z,11.90
2023-04-29T11:58:36.399Z,11.84
2023-04-29T11:59:36.384Z,11.90
2023-04-29T12:00:36.445Z,11.88
2023-04-29T12:01:36.383Z,11.94
2023-04-29T12:02:36.585Z,11.94
2023-04-29T12:03:36.736Z,12.03
2023-04-29T12:04:36.543Z,12.04
2023-04-29T12:05:36.429Z,12.07
2023-04-29T12:06:36.357Z,12.10
2023-04-29T12:07:36.369Z,12.10
2023-04-29T12:08:36.356Z,12.07
2023-04-29T12:09:36.358Z,12.20
2023-04-29T12:10:36.339Z,12.24
2023-04-29T12:11:36.340Z,12.22
2023-04-29T12:12:36.434Z,12.25
2023-04-29T12:13:36.333Z,12.35
2023-04-29T12:14:36.330Z,12.35
2023-04-29T12:15:37.338Z,12.39
2023-04-29T12:16:36.341Z,12.35
2023-04-29T12:17:36.368Z,12.35
2023-04-29T12:18:36.326Z,12.37
2023-04-29T12:19:36.314Z,12.40
2023-04-29T12:20:36.316Z,12.40
2023-04-29T12:21:36.305Z,12.53
2023-04-29T12:22:36.308Z,12.50
2023-04-29T12:23:36.294Z,12.49
2023-04-29T12:24:36.313Z,12.53
2023-04-29T12:25:36.310Z,12.61
2023-04-29T12:26:36.292Z,12.62
2023-04-29T12:27:36.301Z,12.67
2023-04-29T12:28:36.296Z,12.73
2023-04-29T12:29:36.284Z,12.62
2023-04-29T12:30:36.281Z,12.62
2023-04-29T12:31:36.314Z,12.62
2023-04-29T12:32:36.294Z,12.64
2023-04-29T12:33:36.268Z,12.70
2023-04-29T12:34:36.268Z,12.75
2023-04-29T12:35:36.268Z,12.79
2023-04-29T12:36:36.259Z,12.70
2023-04-29T12:37:36.258Z,12.72
2023-04-29T12:38:36.263Z,12.72
2023-04-29T12:39:36.260Z,12.72
2023-04-29T12:40:36.248Z,12.75
2023-04-29T12:41:36.271Z,12.73
2023-04-29T12:42:36.254Z,12.73
2023-04-29T12:43:36.240Z,12.78
2023-04-29T12:44:36.283Z,12.78
2023-04-29T12:45:36.274Z,12.73
2023-04-29T12:46:36.267Z,12.80
2023-04-29T12:47:36.231Z,12.80
2023-04-29T12:48:36.307Z,12.90
2023-04-29T12:49:36.220Z,12.80
2023-04-29T12:50:36.222Z,12.80
2023-04-29T12:51:36.496Z,12.82
2023-04-29T12:52:37.015Z,12.91
2023-04-29T12:53:36.210Z,12.91
2023-04-29T12:54:36.212Z,12.98
2023-04-29T12:55:36.202Z,12.95
2023-04-29T12:56:36.217Z,13.01
2023-04-29T12:57:36.229Z,12.95
2023-04-29T12:58:36.230Z,12.78